Time;durP1;ratioP1;P1;durP2;ratioP2;P2;SDS_P1;SDS_P2;PMS_P1;PMS_P2;Temp;Humidity;BMP_temperature;BMP_pressure;BME280_temperature;BME280_humidity;BME280_pressure;Samples;Min_cycle;Max_cycle;Signal;HPM_P1;HPM_P2
2022/05/24 00:01:37;;;;;;;5.67;5.27;;;16.80;99.90;;;;;;4955895;28;20428;-75
2022/05/24 00:04:05;;;;;;;5.53;5.13;;;16.80;99.90;;;;;;4955228;28;20466;-75
2022/05/24 00:06:33;;;;;;;5.33;4.83;;;16.70;99.90;;;;;;4957952;28;20444;-75
2022/05/24 00:09:00;;;;;;;5.80;5.20;;;16.70;99.90;;;;;;4957894;28;20481;-75
2022/05/24 00:11:27;;;;;;;5.63;5.13;;;16.70;99.90;;;;;;4959593;28;20450;-76
2022/05/24 00:13:54;;;;;;;5.53;5.07;;;16.70;99.90;;;;;;4966325;28;20476;-76
2022/05/24 00:16:21;;;;;;;5.83;5.33;;;16.70;99.90;;;;;;4969285;28;20438;-75
2022/05/24 00:18:48;;;;;;;6.67;5.10;;;16.70;99.90;;;;;;4975828;28;20958;-76
2022/05/24 00:21:16;;;;;;;6.30;5.80;;;16.60;99.90;;;;;;4975804;28;20936;-75
2022/05/24 00:23:43;;;;;;;5.77;5.17;;;16.60;99.90;;;;;;4977608;28;20493;-75
2022/05/24 00:26:22;;;;;;;5.77;5.37;;;16.60;99.90;;;;;;4976888;28;20481;-75
2022/05/24 00:28:49;;;;;;;5.67;5.27;;;16.50;99.90;;;;;;4959003;28;20468;-75
2022/05/24 00:31:16;;;;;;;7.03;6.53;;;16.40;99.90;;;;;;4959044;28;20424;-75
2022/05/24 00:33:42;;;;;;;6.33;5.83;;;16.40;99.90;;;;;;4958471;28;20500;-75
2022/05/24 00:36:10;;;;;;;5.93;5.43;;;16.40;99.90;;;;;;4959544;28;20460;-75
2022/05/24 00:38:39;;;;;;;5.83;5.27;;;16.40;99.90;;;;;;4959478;28;20439;-75
2022/05/24 00:41:17;;;;;;;6.30;5.80;;;16.40;99.90;;;;;;4958216;28;20457;-75
2022/05/24 00:43:48;;;;;;;7.00;6.40;;;16.40;99.90;;;;;;4958641;28;20463;-75
2022/05/24 00:46:17;;;;;;;6.63;6.03;;;16.40;99.90;;;;;;4958691;28;20461;-75
2022/05/24 00:48:50;;;;;;;6.27;5.77;;;16.40;99.90;;;;;;4958146;28;20827;-75
2022/05/24 00:51:25;;;;;;;7.37;6.60;;;16.30;99.90;;;;;;4958279;28;20463;-75
2022/05/24 00:53:55;;;;;;;7.40;6.70;;;16.30;99.90;;;;;;4957748;28;20864;-75
2022/05/24 00:56:35;;;;;;;7.30;6.70;;;16.30;99.90;;;;;;4958532;28;20432;-76
2022/05/24 00:59:06;;;;;;;6.60;6.00;;;16.20;99.90;;;;;;4957916;28;20483;-76
2022/05/24 01:01:36;;;;;;;7.77;7.07;;;16.20;99.90;;;;;;4958293;28;21137;-76
2022/05/24 01:04:04;;;;;;;15.40;7.53;;;16.30;99.90;;;;;;4958256;28;20522;-76
2022/05/24 01:06:31;;;;;;;7.60;7.00;;;16.30;99.90;;;;;;4958438;28;20457;-76
2022/05/24 01:09:04;;;;;;;7.00;6.50;;;16.20;99.90;;;;;;4958058;28;20532;-76
2022/05/24 01:11:32;;;;;;;8.50;6.30;;;16.20;99.90;;;;;;4958748;28;20457;-75
2022/05/24 01:14:01;;;;;;;7.93;6.50;;;16.20;99.90;;;;;;4957313;28;20488;-76
2022/05/24 01:16:28;;;;;;;7.27;6.67;;;16.20;99.90;;;;;;4957602;28;20465;-76
2022/05/24 01:18:55;;;;;;;7.00;6.40;;;16.20;99.90;;;;;;4957760;28;20477;-75
2022/05/24 01:21:22;;;;;;;7.20;6.50;;;16.20;99.90;;;;;;4957884;28;20563;-77
2022/05/24 01:24:02;;;;;;;8.50;6.93;;;16.10;99.90;;;;;;4957434;28;20469;-76
2022/05/24 01:26:47;;;;;;;7.13;6.53;;;16.00;99.90;;;;;;4957779;28;21023;-76
2022/05/24 01:29:14;;;;;;;6.70;6.10;;;16.00;99.90;;;;;;4957341;28;20771;-75
2022/05/24 01:37:12;;;;;;;7.83;7.13;;;16.00;99.90;;;;;;4957737;28;20806;-76
2022/05/24 01:39:40;;;;;;;6.73;6.20;;;15.90;99.90;;;;;;4960031;28;20460;-75
2022/05/24 01:42:10;;;;;;;8.00;7.30;;;15.80;99.90;;;;;;4969604;28;20509;-75
2022/05/24 01:44:43;;;;;;;7.80;6.70;;;15.80;99.90;;;;;;4963644;28;20454;-76
2022/05/24 01:47:11;;;;;;;7.80;7.07;;;15.80;99.90;;;;;;4957224;28;20462;-76
2022/05/24 01:49:44;;;;;;;8.03;7.33;;;15.80;99.90;;;;;;4956805;28;20821;-76
2022/05/24 01:52:15;;;;;;;8.27;7.53;;;15.80;99.90;;;;;;4956827;28;20520;-76
2022/05/24 01:54:46;;;;;;;6.57;6.07;;;15.80;99.90;;;;;;4956477;28;20934;-76
2022/05/24 01:57:17;;;;;;;8.03;7.33;;;15.80;99.90;;;;;;4956993;28;20462;-76
2022/05/24 01:59:47;;;;;;;7.20;6.63;;;15.80;99.90;;;;;;4957078;28;20561;-76
2022/05/24 02:02:14;;;;;;;7.93;6.90;;;15.70;99.90;;;;;;4956578;28;20464;-75
2022/05/24 02:04:41;;;;;;;7.60;7.00;;;15.70;99.90;;;;;;4956980;28;20799;-76
2022/05/24 02:07:10;;;;;;;7.00;6.30;;;15.70;99.90;;;;;;4956653;28;20500;-75
2022/05/24 02:09:42;;;;;;;7.37;6.67;;;15.70;99.90;;;;;;4956651;28;20515;-75
2022/05/24 02:12:13;;;;;;;8.33;7.43;;;15.70;99.90;;;;;;4956831;28;20473;-75
2022/05/24 02:14:45;;;;;;;7.20;6.33;;;15.70;99.90;;;;;;4956770;28;20457;-77
2022/05/24 02:17:16;;;;;;;7.07;6.47;;;15.70;99.90;;;;;;4956416;28;20480;-75
2022/05/24 02:19:48;;;;;;;7.03;6.43;;;15.70;99.90;;;;;;4957276;28;20461;-75
2022/05/24 02:22:20;;;;;;;6.93;6.23;;;15.70;99.90;;;;;;4958286;28;20485;-76
2022/05/24 02:24:54;;;;;;;7.47;6.87;;;15.70;99.90;;;;;;4958358;28;20511;-76
2022/05/24 02:27:21;;;;;;;6.33;5.83;;;15.70;99.90;;;;;;4958009;28;20500;-75
2022/05/24 02:29:49;;;;;;;5.83;5.33;;;15.70;99.90;;;;;;4958401;28;20457;-75
2022/05/24 02:32:16;;;;;;;6.00;5.60;;;15.70;99.90;;;;;;4958027;28;20505;-76
2022/05/24 02:34:42;;;;;;;6.83;6.20;;;15.70;99.90;;;;;;4960628;28;20453;-76
2022/05/24 02:37:09;;;;;;;5.70;5.20;;;15.80;99.90;;;;;;4965297;28;20465;-75
2022/05/24 02:41:28;;;;;;;5.83;5.43;;;15.80;99.90;;;;;;4967604;28;20453;-75
2022/05/24 02:42:22;;;;;;;5.20;4.90;;;15.80;99.90;;;;;;4965880;28;20549;-76
2022/05/24 02:44:50;;;;;;;5.50;4.90;;;15.90;99.90;;;;;;4963761;28;20824;-75
2022/05/24 02:47:18;;;;;;;6.23;5.13;;;15.90;99.90;;;;;;4956282;28;20921;-75
2022/05/24 02:49:45;;;;;;;9.60;4.77;;;15.90;99.90;;;;;;4958262;28;20462;-75
2022/05/24 02:52:11;;;;;;;6.17;5.67;;;15.90;99.90;;;;;;4955951;28;20952;-76
2022/05/24 02:54:38;;;;;;;5.40;4.97;;;15.80;99.90;;;;;;4958353;28;20454;-75
2022/05/24 02:57:06;;;;;;;5.43;4.93;;;15.80;99.90;;;;;;4963719;28;20420;-76
2022/05/24 02:59:33;;;;;;;8.33;5.23;;;15.80;99.90;;;;;;4960518;28;20449;-76
2022/05/24 03:02:04;;;;;;;5.40;5.00;;;15.70;99.90;;;;;;4962191;28;20457;-75
2022/05/24 03:04:31;;;;;;;6.07;5.47;;;15.70;99.90;;;;;;4964113;28;20412;-75
2022/05/24 03:09:43;;;;;;;5.90;5.40;;;15.80;99.90;;;;;;4960844;28;20460;-76
2022/05/24 03:14:56;;;;;;;6.47;5.53;;;15.80;99.90;;;;;;4966899;28;20458;-76
2022/05/24 03:17:25;;;;;;;5.90;5.50;;;15.80;99.90;;;;;;4972405;28;20452;-75
2022/05/24 03:19:52;;;;;;;5.60;5.20;;;15.80;99.90;;;;;;4965691;28;20439;-75
2022/05/24 03:22:19;;;;;;;9.00;8.10;;;15.70;99.90;;;;;;4963012;28;20447;-75
2022/05/24 03:24:46;;;;;;;5.27;4.90;;;15.70;99.90;;;;;;4957378;28;20528;-75
2022/05/24 03:27:13;;;;;;;6.13;5.63;;;15.70;99.90;;;;;;4956038;28;20456;-75
2022/05/24 03:29:41;;;;;;;5.93;5.40;;;15.70;99.90;;;;;;4955716;28;20846;-75
2022/05/24 03:32:09;;;;;;;5.67;5.07;;;15.60;99.90;;;;;;4955064;28;20471;-76
2022/05/24 03:34:38;;;;;;;5.27;4.87;;;15.60;99.90;;;;;;4955311;28;20479;-76
2022/05/24 03:37:06;;;;;;;5.43;5.03;;;15.60;99.90;;;;;;4955332;28;20467;-75
2022/05/24 03:39:33;;;;;;;4.90;4.60;;;15.60;99.90;;;;;;4956817;28;20465;-77
2022/05/24 03:42:00;;;;;;;4.67;4.37;;;15.70;99.90;;;;;;4955529;28;20457;-77
2022/05/24 03:44:27;;;;;;;5.60;5.10;;;15.70;99.90;;;;;;4954906;28;21053;-76
2022/05/24 03:46:54;;;;;;;5.30;4.83;;;15.70;99.90;;;;;;4955572;28;20454;-76
2022/05/24 03:49:22;;;;;;;5.90;5.30;;;15.60;99.90;;;;;;4956564;28;20432;-76
2022/05/24 03:51:50;;;;;;;5.77;4.90;;;15.60;99.90;;;;;;4954924;28;20457;-76
2022/05/24 03:54:17;;;;;;;5.50;5.00;;;15.60;99.90;;;;;;4953761;28;20493;-76
2022/05/24 03:57:59;;;;;;;5.50;4.70;;;15.60;99.90;;;;;;4955095;28;20552;-76
2022/05/24 03:59:32;;;;;;;5.07;4.67;;;15.60;99.90;;;;;;4954368;28;20533;-76
2022/05/24 04:01:59;;;;;;;5.50;4.73;;;15.60;99.90;;;;;;4954441;28;20465;-76
2022/05/24 04:04:26;;;;;;;4.90;4.50;;;15.70;99.90;;;;;;4954521;28;20527;-75
2022/05/24 04:06:54;;;;;;;5.57;5.07;;;15.70;99.90;;;;;;4954979;28;20465;-76
2022/05/24 04:09:21;;;;;;;4.43;4.13;;;15.80;99.90;;;;;;4954662;28;20508;-77
2022/05/24 04:11:48;;;;;;;4.77;4.40;;;15.80;99.90;;;;;;4955008;29;20457;-76
2022/05/24 04:14:15;;;;;;;4.00;3.70;;;15.80;99.90;;;;;;4954434;28;20878;-76
2022/05/24 04:16:42;;;;;;;4.27;3.97;;;15.90;99.90;;;;;;4956777;29;20857;-76
2022/05/24 04:19:08;;;;;;;3.73;3.43;;;15.90;99.90;;;;;;4962249;28;20541;-76
2022/05/24 04:21:39;;;;;;;5.97;4.10;;;15.90;99.90;;;;;;4974853;28;20477;-76
2022/05/24 04:24:08;;;;;;;3.73;3.43;;;16.00;99.90;;;;;;4970206;28;20473;-77
2022/05/24 04:26:34;;;;;;;3.23;3.03;;;16.00;99.90;;;;;;4955378;28;20453;-76
2022/05/24 04:29:01;;;;;;;3.67;3.43;;;16.00;99.90;;;;;;4955016;28;20821;-76
2022/05/24 04:31:28;;;;;;;11.90;4.53;;;16.00;99.90;;;;;;4953804;29;20465;-77
2022/05/24 04:33:55;;;;;;;3.37;3.07;;;16.10;99.90;;;;;;4952997;28;20543;-77
2022/05/24 04:36:22;;;;;;;2.97;2.77;;;16.20;99.90;;;;;;4954560;28;20488;-77
2022/05/24 04:38:49;;;;;;;3.13;2.90;;;16.30;99.90;;;;;;4954240;28;20556;-77
2022/05/24 04:44:01;;;;;;;2.73;2.63;;;16.50;99.90;;;;;;4954260;28;20431;-77
2022/05/24 04:47:06;;;;;;;2.73;2.50;;;16.50;99.90;;;;;;4955228;28;21005;-78
2022/05/24 04:49:15;;;;;;;3.00;2.70;;;16.60;99.90;;;;;;4954957;29;21070;-78
2022/05/24 04:51:42;;;;;;;2.77;2.43;;;16.70;99.00;;;;;;4955960;28;20453;-77
2022/05/24 04:54:09;;;;;;;3.20;2.70;;;16.80;98.20;;;;;;4962838;28;20526;-78
2022/05/24 04:56:37;;;;;;;2.23;2.03;;;17.20;99.10;;;;;;4969992;28;20524;-78
2022/05/24 04:59:04;;;;;;;2.97;1.77;;;18.10;97.50;;;;;;4969657;28;20456;-77
2022/05/24 05:01:31;;;;;;;2.33;1.80;;;19.10;82.00;;;;;;4970954;28;20473;-78
2022/05/24 05:03:59;;;;;;;2.30;1.60;;;19.30;72.50;;;;;;4966275;28;20458;-77
2022/05/24 05:06:25;;;;;;;1.77;1.67;;;20.10;67.90;;;;;;4964668;28;21016;-78
2022/05/24 05:08:52;;;;;;;1.73;1.60;;;20.40;63.00;;;;;;4961246;28;20457;-78
2022/05/24 05:11:20;;;;;;;2.57;1.60;;;20.70;61.90;;;;;;4959549;28;20482;-78
2022/05/24 05:13:49;;;;;;;2.33;1.97;;;21.10;59.60;;;;;;4961184;28;20486;-77
2022/05/24 05:16:16;;;;;;;2.40;1.57;;;21.60;56.90;;;;;;4960075;28;20478;-78
2022/05/24 05:18:43;;;;;;;1.50;1.40;;;21.70;54.50;;;;;;4964485;28;20491;-78
2022/05/24 05:21:10;;;;;;;4.37;1.30;;;21.00;54.70;;;;;;4970010;28;20451;-78
2022/05/24 05:23:37;;;;;;;2.30;1.90;;;20.40;56.30;;;;;;4962966;28;20474;-77
2022/05/24 05:26:03;;;;;;;1.53;1.43;;;19.70;58.30;;;;;;4961726;28;20460;-78
2022/05/24 05:28:30;;;;;;;1.40;1.30;;;19.20;61.00;;;;;;4960660;28;20465;-78
2022/05/24 05:33:44;;;;;;;3.17;1.27;;;18.60;66.10;;;;;;4961031;28;20492;-78
2022/05/24 05:36:11;;;;;;;2.20;1.50;;;18.60;66.50;;;;;;4960918;28;20461;-79
2022/05/24 05:38:44;;;;;;;3.03;1.73;;;18.60;67.20;;;;;;4958493;28;20879;-79
2022/05/24 05:41:11;;;;;;;1.70;1.60;;;18.60;67.00;;;;;;4967677;28;20966;-77
2022/05/24 05:43:37;;;;;;;2.53;1.90;;;18.50;69.40;;;;;;4960086;28;20579;-79
2022/05/24 05:46:07;;;;;;;2.10;1.90;;;18.40;69.00;;;;;;4958704;28;20461;-79
2022/05/24 05:48:35;;;;;;;2.93;2.30;;;18.20;71.30;;;;;;4961745;28;20555;-78
2022/05/24 05:51:02;;;;;;;2.83;1.90;;;17.90;74.90;;;;;;4967725;28;20468;-77
2022/05/24 05:53:29;;;;;;;2.60;1.90;;;17.50;82.90;;;;;;4959433;28;20533;-78
2022/05/24 05:55:56;;;;;;;3.57;2.53;;;17.30;86.50;;;;;;4960157;28;20552;-80
2022/05/24 05:58:23;;;;;;;2.47;2.27;;;17.00;90.40;;;;;;4959963;28;20534;-78
2022/05/24 06:00:50;;;;;;;3.27;2.80;;;16.90;91.20;;;;;;4962525;28;20460;-81
2022/05/24 06:03:20;;;;;;;2.13;1.70;;;16.80;94.10;;;;;;4962690;28;20509;-80
2022/05/24 06:05:49;;;;;;;1.53;1.20;;;16.20;92.60;;;;;;4963320;28;20461;-81
2022/05/24 06:08:16;;;;;;;1.47;1.37;;;15.80;91.80;;;;;;4962982;28;20449;-79
2022/05/24 06:10:43;;;;;;;1.70;1.60;;;15.50;92.30;;;;;;4960783;28;20484;-80
2022/05/24 06:13:10;;;;;;;2.25;1.60;;;15.20;94.80;;;;;;4961473;28;20473;-80
2022/05/24 06:15:37;;;;;;;2.28;1.50;;;15.10;96.50;;;;;;4962577;28;20205;-80
2022/05/24 06:18:05;;;;;;;2.25;1.88;;;15.20;97.90;;;;;;4963194;28;20210;-80
2022/05/24 06:20:36;;;;;;;2.05;1.85;;;15.10;97.90;;;;;;4963056;28;20210;-80
2022/05/24 06:23:03;;;;;;;2.17;2.00;;;15.20;99.10;;;;;;4968339;28;20237;-79
2022/05/24 06:25:32;;;;;;;3.50;1.70;;;15.30;99.90;;;;;;4961591;28;20206;-78
2022/05/24 06:28:01;;;;;;;1.77;1.50;;;15.50;99.40;;;;;;4967337;28;20217;-80
2022/05/24 06:30:28;;;;;;;2.10;1.23;;;15.50;97.80;;;;;;4960181;28;20300;-81
2022/05/24 06:32:55;;;;;;;1.90;1.37;;;15.50;96.30;;;;;;4964899;28;20521;-79
2022/05/24 06:35:22;;;;;;;2.10;1.00;;;15.60;94.50;;;;;;4958868;28;20821;-79
2022/05/24 06:37:53;;;;;;;0.93;0.93;;;15.50;93.20;;;;;;4958869;28;20517;-79
2022/05/24 06:40:20;;;;;;;2.60;1.00;;;15.60;93.60;;;;;;4960197;28;20458;-79
2022/05/24 06:42:47;;;;;;;1.13;0.73;;;15.60;91.80;;;;;;4964653;28;20474;-80
2022/05/24 06:45:14;;;;;;;0.97;0.87;;;15.60;91.70;;;;;;4961369;28;20458;-79
2022/05/24 06:47:41;;;;;;;3.20;1.20;;;15.70;91.80;;;;;;4967291;28;20564;-79
2022/05/24 06:50:10;;;;;;;0.90;0.90;;;15.80;91.50;;;;;;4966838;28;20502;-81
2022/05/24 06:52:37;;;;;;;2.23;0.73;;;15.70;90.50;;;;;;4958812;28;20477;-79
2022/05/24 06:55:07;;;;;;;0.93;0.93;;;15.70;90.60;;;;;;4963176;28;20489;-80
2022/05/24 06:57:34;;;;;;;1.97;0.90;;;15.60;91.70;;;;;;4970760;28;20428;-79
2022/05/24 07:02:48;;;;;;;1.83;1.07;;;15.60;93.70;;;;;;4982787;23;20451;-83
2022/05/24 07:05:20;;;;;;;1.13;1.02;;;15.50;94.20;;;;;;4945059;29;20474;-81
2022/05/24 07:07:47;;;;;;;1.90;1.10;;;15.50;95.00;;;;;;4954586;29;20702;-83
2022/05/24 07:10:16;;;;;;;2.30;1.30;;;15.60;94.50;;;;;;4946494;29;20464;-83
2022/05/24 07:12:45;;;;;;;1.00;1.00;;;15.70;95.40;;;;;;4951680;28;20521;-83
2022/05/24 07:15:12;;;;;;;1.33;1.07;;;15.80;95.10;;;;;;4956449;29;20579;-82
2022/05/24 07:17:39;;;;;;;3.83;0.83;;;15.80;94.70;;;;;;4954862;28;20459;-84
2022/05/24 07:20:08;;;;;;;2.40;1.10;;;16.20;94.90;;;;;;4943188;29;20965;-84
2022/05/24 07:22:37;;;;;;;1.43;1.30;;;16.40;92.00;;;;;;4941651;29;20449;-83
2022/05/24 07:25:06;;;;;;;2.97;1.17;;;16.60;90.00;;;;;;4942367;28;20498;-82
2022/05/24 07:27:39;;;;;;;2.77;1.17;;;16.80;85.60;;;;;;4943566;29;20449;-84
2022/05/24 07:30:08;;;;;;;0.90;0.90;;;17.00;80.20;;;;;;4942655;29;20518;-82
2022/05/24 07:32:35;;;;;;;2.20;0.90;;;17.10;78.50;;;;;;4942698;28;20528;-83
2022/05/24 07:35:02;;;;;;;3.37;1.10;;;17.30;76.30;;;;;;4942036;29;20953;-83
2022/05/24 07:37:29;;;;;;;2.00;1.00;;;17.60;74.60;;;;;;4943681;29;20497;-82
2022/05/24 07:48:09;;;;;;;0.90;0.87;;;17.80;65.80;;;;;;4951681;29;20433;-82
2022/05/24 07:50:37;;;;;;;1.53;1.00;;;17.60;68.10;;;;;;4948088;29;20458;-82
2022/05/24 07:53:05;;;;;;;1.93;1.10;;;17.90;67.60;;;;;;4949868;29;20479;-82
2022/05/24 07:55:32;;;;;;;1.90;0.87;;;18.00;63.10;;;;;;4945436;28;20485;-83
2022/05/24 07:58:00;;;;;;;3.13;1.10;;;17.80;63.20;;;;;;4953127;29;20448;-82
2022/05/24 08:00:28;;;;;;;0.90;0.90;;;17.50;63.40;;;;;;4957931;29;20452;-83
2022/05/24 08:02:55;;;;;;;1.83;1.00;;;17.60;65.60;;;;;;4958111;28;20533;-83
2022/05/24 08:05:23;;;;;;;1.33;1.07;;;17.60;65.60;;;;;;4958000;29;20470;-81
2022/05/24 08:07:50;;;;;;;2.30;1.00;;;17.80;65.80;;;;;;4958858;28;20430;-83
2022/05/24 08:10:18;;;;;;;2.13;1.20;;;17.90;63.40;;;;;;4958451;28;20436;-81
2022/05/24 08:12:45;;;;;;;1.47;1.10;;;17.90;60.20;;;;;;4953973;28;20437;-82
2022/05/24 08:15:15;;;;;;;1.10;0.80;;;18.00;60.00;;;;;;4948131;29;20498;-83
2022/05/24 08:17:42;;;;;;;1.73;1.00;;;18.00;57.50;;;;;;4942925;29;20462;-83
2022/05/24 08:20:10;;;;;;;0.83;0.83;;;18.00;57.50;;;;;;4947462;29;20453;-84
2022/05/24 08:22:37;;;;;;;2.60;1.27;;;17.60;55.70;;;;;;4943467;29;20492;-84
2022/05/24 08:25:06;;;;;;;1.33;1.00;;;17.30;56.50;;;;;;4947309;29;20466;-83
2022/05/24 08:27:33;;;;;;;1.83;0.93;;;17.50;58.90;;;;;;4944982;29;21065;-83
2022/05/24 08:30:01;;;;;;;1.53;0.93;;;17.40;58.90;;;;;;4948115;29;20476;-82
2022/05/24 08:32:29;;;;;;;1.30;0.70;;;17.40;58.10;;;;;;4944901;29;20519;-82
2022/05/24 08:34:56;;;;;;;1.07;0.80;;;17.60;56.30;;;;;;4942107;29;20453;-84
2022/05/24 08:37:23;;;;;;;0.87;0.83;;;17.70;55.40;;;;;;4950964;29;20461;-86
2022/05/24 08:39:50;;;;;;;3.03;0.90;;;17.60;53.50;;;;;;4953999;29;20474;-83
2022/05/24 08:42:26;;;;;;;2.73;0.80;;;17.60;53.80;;;;;;4957304;29;20429;-83
2022/05/24 08:50:38;;;;;;;2.57;0.50;;;18.50;51.60;;;;;;4957724;29;20493;-82
2022/05/24 08:53:08;;;;;;;1.63;0.90;;;18.60;49.30;;;;;;4951876;29;20493;-83
2022/05/24 08:55:38;;;;;;;1.40;0.50;;;18.70;47.60;;;;;;4948981;29;20500;-83
2022/05/24 08:58:10;;;;;;;3.03;0.80;;;18.30;47.30;;;;;;4949543;29;20449;-83
2022/05/24 09:00:40;;;;;;;0.50;0.50;;;18.30;47.30;;;;;;4947969;29;20454;-82
2022/05/24 09:03:09;;;;;;;0.80;0.80;;;18.50;45.80;;;;;;4947289;29;20481;-82
2022/05/24 09:05:39;;;;;;;0.80;0.50;;;18.50;48.20;;;;;;4946988;29;20433;-84
2022/05/24 09:08:17;;;;;;;1.30;1.07;;;18.50;46.10;;;;;;4949896;29;20462;-83
2022/05/24 09:10:50;;;;;;;0.60;0.60;;;18.40;47.30;;;;;;4952162;29;20446;-83
2022/05/24 09:13:44;;;;;;;0.60;0.60;;;18.30;47.30;;;;;;4946806;29;20467;-84
2022/05/24 09:16:13;;;;;;;0.57;0.57;;;18.50;45.30;;;;;;4945415;29;20457;-83
2022/05/24 09:18:52;;;;;;;1.67;0.80;;;18.50;46.00;;;;;;4946588;29;20531;-84
2022/05/24 09:21:23;;;;;;;0.60;0.60;;;18.80;45.70;;;;;;4946321;29;20544;-84
2022/05/24 09:23:57;;;;;;;0.93;0.70;;;19.00;44.10;;;;;;4946338;29;20559;-84
2022/05/24 09:26:25;;;;;;;1.60;0.50;;;19.20;43.80;;;;;;4946752;29;20462;-84
2022/05/24 09:28:55;;;;;;;1.70;0.90;;;19.30;43.00;;;;;;4946451;29;20473;-84
2022/05/24 09:31:27;;;;;;;1.37;0.90;;;19.30;43.10;;;;;;4946645;29;20776;-84
2022/05/24 09:33:57;;;;;;;1.10;0.77;;;19.40;42.10;;;;;;4948651;29;20463;-83
2022/05/24 09:36:35;;;;;;;0.80;0.53;;;19.40;41.70;;;;;;4956454;29;20465;-85
2022/05/24 09:39:05;;;;;;;1.80;0.77;;;19.50;40.80;;;;;;4956586;29;20404;-83
2022/05/24 09:41:32;;;;;;;2.03;0.90;;;19.40;41.40;;;;;;4951862;29;20845;-83
2022/05/24 09:44:03;;;;;;;0.60;0.60;;;19.30;40.30;;;;;;4946991;29;20495;-83
2022/05/24 09:46:32;;;;;;;1.67;0.70;;;19.20;40.90;;;;;;4953975;28;20421;-83
2022/05/24 09:49:03;;;;;;;3.30;0.57;;;19.60;39.20;;;;;;4953713;29;20514;-84
2022/05/24 09:51:38;;;;;;;3.67;0.90;;;19.80;38.60;;;;;;4947919;29;20513;-82
2022/05/24 09:54:08;;;;;;;1.23;0.70;;;19.90;38.70;;;;;;4948894;29;20477;-84
2022/05/24 09:56:35;;;;;;;4.00;0.63;;;20.10;38.90;;;;;;4949496;28;20467;-84
2022/05/24 09:59:04;;;;;;;1.60;0.80;;;20.20;37.70;;;;;;4948045;29;20454;-84
2022/05/24 10:01:39;;;;;;;2.50;1.20;;;20.10;37.80;;;;;;4948655;29;20573;-85
2022/05/24 10:04:34;;;;;;;1.23;0.80;;;20.20;38.60;;;;;;4947518;29;20544;-84
2022/05/24 10:07:04;;;;;;;2.30;1.10;;;20.40;37.20;;;;;;4948334;29;20526;-85
2022/05/24 10:09:50;;;;;;;1.33;0.70;;;20.40;37.00;;;;;;4957545;29;20397;-84
2022/05/24 10:12:26;;;;;;;0.60;0.60;;;20.60;35.10;;;;;;4958500;29;20459;-84
2022/05/24 10:15:03;;;;;;;0.60;0.60;;;20.90;34.00;;;;;;4960020;28;20496;-84
2022/05/24 10:17:40;;;;;;;1.70;0.70;;;20.90;32.70;;;;;;4961106;28;20436;-85
2022/05/24 10:20:16;;;;;;;0.90;0.60;;;21.10;33.50;;;;;;4961021;28;20417;-86
2022/05/24 10:22:52;;;;;;;1.07;0.73;;;20.90;33.60;;;;;;4961022;28;20437;-85
2022/05/24 10:25:26;;;;;;;0.80;0.70;;;21.00;33.10;;;;;;4960654;28;20458;-84
2022/05/24 10:28:10;;;;;;;1.30;0.60;;;21.10;33.80;;;;;;4960948;28;20441;-84
2022/05/24 10:30:56;;;;;;;1.70;0.90;;;20.90;33.60;;;;;;4961000;28;20405;-84
2022/05/24 10:39:39;;;;;;;0.60;0.60;;;20.90;31.30;;;;;;4957371;28;20475;-84
2022/05/24 10:42:14;;;;;;;3.17;0.50;;;20.90;32.30;;;;;;4944492;28;20460;-84
2022/05/24 10:44:47;;;;;;;0.70;0.53;;;20.60;30.90;;;;;;4956659;28;20481;-84
2022/05/24 10:47:25;;;;;;;1.60;0.60;;;20.30;30.70;;;;;;4957575;29;20437;-82
2022/05/24 10:49:56;;;;;;;1.00;0.70;;;20.20;30.20;;;;;;4955839;28;20496;-84
2022/05/24 10:52:34;;;;;;;0.70;0.70;;;20.40;30.10;;;;;;4956392;29;20859;-84
2022/05/24 10:55:08;;;;;;;0.70;0.70;;;20.60;30.20;;;;;;4957628;29;20565;-84
2022/05/24 10:57:41;;;;;;;0.80;0.53;;;20.80;30.20;;;;;;4957669;29;20409;-83
2022/05/24 11:00:15;;;;;;;0.67;0.60;;;21.20;29.80;;;;;;4958993;28;20465;-85
2022/05/24 11:02:48;;;;;;;2.60;0.80;;;21.40;29.60;;;;;;4955685;29;20631;-84
2022/05/24 11:05:21;;;;;;;1.10;1.00;;;21.40;29.90;;;;;;4951807;29;20447;-84
2022/05/24 11:07:55;;;;;;;1.33;0.80;;;21.80;28.50;;;;;;4955625;29;20528;-84
2022/05/24 11:10:26;;;;;;;2.23;0.70;;;21.50;28.40;;;;;;4952515;29;20540;-84
2022/05/24 11:12:57;;;;;;;1.27;0.70;;;21.20;28.60;;;;;;4952219;29;20454;-82
2022/05/24 11:15:32;;;;;;;1.13;0.90;;;21.10;29.70;;;;;;4953580;29;20489;-83
2022/05/24 11:18:00;;;;;;;0.50;0.50;;;21.10;29.70;;;;;;4956198;29;20773;-83
2022/05/24 11:20:34;;;;;;;0.57;0.57;;;21.30;29.80;;;;;;4954842;29;20424;-84
2022/05/24 11:23:10;;;;;;;1.90;0.60;;;21.60;28.20;;;;;;4955944;29;20460;-83
2022/05/24 11:25:42;;;;;;;0.87;0.70;;;21.70;29.20;;;;;;4953114;29;20469;-83
2022/05/24 11:28:20;;;;;;;1.97;0.90;;;21.50;28.70;;;;;;4954301;29;20478;-84
2022/05/24 11:30:48;;;;;;;3.17;0.70;;;21.30;28.80;;;;;;4959074;28;20530;-84
2022/05/24 11:33:18;;;;;;;0.90;0.80;;;20.90;29.60;;;;;;4958484;28;20432;-84
2022/05/24 11:35:50;;;;;;;1.10;0.57;;;20.80;29.80;;;;;;4956244;29;20465;-84
2022/05/24 11:38:35;;;;;;;0.53;0.40;;;20.40;29.20;;;;;;4958206;28;20447;-83
2022/05/24 11:41:19;;;;;;;1.83;0.70;;;20.40;29.20;;;;;;4958548;28;20458;-83
2022/05/24 11:44:02;;;;;;;0.57;0.50;;;20.30;29.10;;;;;;4955856;28;20482;-83
2022/05/24 11:46:48;;;;;;;0.70;0.70;;;20.50;29.20;;;;;;4956091;29;20415;-84
2022/05/24 11:50:05;;;;;;;0.67;0.60;;;20.60;29.30;;;;;;4955868;29;20596;-82
2022/05/24 11:53:04;;;;;;;3.87;0.60;;;20.80;29.50;;;;;;4954742;29;20465;-83
2022/05/24 11:55:51;;;;;;;0.80;0.63;;;20.80;29.50;;;;;;4932724;29;20798;-84
2022/05/24 11:58:50;;;;;;;0.70;0.60;;;20.90;29.50;;;;;;4943902;29;20466;-84
2022/05/24 12:01:43;;;;;;;1.00;0.50;;;21.00;29.70;;;;;;4944352;29;20441;-83
2022/05/24 12:10:47;;;;;;;1.37;0.70;;;20.80;29.50;;;;;;4948453;29;20470;-84
2022/05/24 12:13:31;;;;;;;1.27;0.60;;;20.40;29.20;;;;;;4946988;29;20520;-84
2022/05/24 12:16:01;;;;;;;3.40;0.80;;;20.40;30.20;;;;;;4945683;29;20470;-83
2022/05/24 12:18:44;;;;;;;2.20;0.60;;;20.30;30.70;;;;;;4948439;29;20458;-81
2022/05/24 12:21:39;;;;;;;0.73;0.60;;;20.50;30.90;;;;;;4946906;29;20449;-83
2022/05/24 12:24:34;;;;;;;0.57;0.57;;;20.90;30.30;;;;;;4944735;29;20529;-83
2022/05/24 12:27:20;;;;;;;2.43;0.70;;;20.90;29.50;;;;;;4943467;29;20561;-83
2022/05/24 12:29:53;;;;;;;1.83;0.80;;;21.00;29.60;;;;;;4942283;29;20534;-83
2022/05/24 12:32:23;;;;;;;1.00;1.00;;;21.50;29.70;;;;;;4943089;29;20429;-82
2022/05/24 12:34:50;;;;;;;0.50;0.50;;;21.60;28.70;;;;;;4942312;29;20460;-83
2022/05/24 12:37:24;;;;;;;0.70;0.57;;;21.60;28.40;;;;;;4944376;29;20470;-84
2022/05/24 12:40:14;;;;;;;2.00;1.07;;;21.10;29.00;;;;;;4953340;29;20549;-83
2022/05/24 12:42:46;;;;;;;0.80;0.80;;;20.90;29.50;;;;;;4947733;29;20431;-83
2022/05/24 12:45:22;;;;;;;2.93;0.70;;;21.00;29.10;;;;;;4955533;29;20462;-82
2022/05/24 12:47:52;;;;;;;3.03;0.93;;;21.40;28.80;;;;;;4952419;29;20549;-83
2022/05/24 12:50:26;;;;;;;0.83;0.80;;;21.50;27.90;;;;;;4950146;29;20436;-84
2022/05/24 12:53:02;;;;;;;1.17;0.53;;;21.40;28.10;;;;;;4944689;29;20482;-84
2022/05/24 12:58:26;;;;;;;1.60;0.50;;;21.30;27.60;;;;;;4949231;29;20457;-85
2022/05/24 13:01:07;;;;;;;0.50;0.50;;;21.40;27.60;;;;;;4949305;29;20429;-84
2022/05/24 13:03:35;;;;;;;1.10;0.60;;;21.60;27.90;;;;;;4969722;23;20498;-86
2022/05/24 13:06:02;;;;;;;0.63;0.50;;;21.70;27.50;;;;;;4958274;28;20437;-87
2022/05/24 13:08:29;;;;;;;1.23;0.60;;;21.70;26.90;;;;;;4958950;28;20508;-85
2022/05/24 13:11:02;;;;;;;0.70;0.60;;;21.70;27.20;;;;;;4959169;28;20425;-84
2022/05/24 13:13:30;;;;;;;2.07;0.63;;;21.50;27.30;;;;;;4958873;28;20472;-84
2022/05/24 13:16:01;;;;;;;0.93;0.80;;;21.40;27.70;;;;;;4958575;28;20490;-85
2022/05/24 13:18:31;;;;;;;0.73;0.60;;;21.40;26.50;;;;;;4958785;28;20455;-85
2022/05/24 13:21:03;;;;;;;1.30;0.80;;;21.40;25.80;;;;;;4959224;28;20422;-86
2022/05/24 13:23:34;;;;;;;0.60;0.60;;;21.30;26.50;;;;;;4959492;28;20453;-84
2022/05/24 13:26:15;;;;;;;1.03;0.83;;;21.30;26.30;;;;;;4959435;28;20470;-85
2022/05/24 13:28:44;;;;;;;0.93;0.50;;;21.50;26.60;;;;;;4961727;28;20388;-85
2022/05/24 13:34:02;;;;;;;1.47;0.90;;;22.00;26.40;;;;;;4961983;28;20420;-86
2022/05/24 13:36:31;;;;;;;0.70;0.50;;;22.20;25.00;;;;;;4962698;28;20460;-86
2022/05/24 13:39:15;;;;;;;0.40;0.40;;;22.30;25.00;;;;;;4961773;28;20506;-86
2022/05/24 13:41:45;;;;;;;2.67;0.60;;;22.20;25.50;;;;;;4956558;29;20423;-85
2022/05/24 13:44:23;;;;;;;1.93;0.70;;;22.00;26.00;;;;;;4956030;29;20440;-85
2022/05/24 13:46:55;;;;;;;2.50;0.60;;;22.10;26.30;;;;;;4956435;29;20392;-86
2022/05/24 13:49:28;;;;;;;0.50;0.50;;;22.30;26.50;;;;;;4955287;29;20439;-86
2022/05/24 13:52:12;;;;;;;0.93;0.50;;;22.40;25.90;;;;;;4956132;28;20434;-84
2022/05/24 13:54:39;;;;;;;1.00;0.60;;;22.40;25.60;;;;;;4952576;28;20441;-85
2022/05/24 13:57:07;;;;;;;1.13;0.63;;;22.10;26.20;;;;;;4953502;29;20445;-86
2022/05/24 13:59:34;;;;;;;1.80;1.00;;;22.00;25.70;;;;;;4955530;29;20472;-85